Time;durP1;ratioP1;P1;durP2;ratioP2;P2;SDS_P1;SDS_P2;PMS_P1;PMS_P2;Temp;Humidity;BMP_temperature;BMP_pressure;BME280_temperature;BME280_humidity;BME280_pressure;Samples;Min_cycle;Max_cycle;Signal;HPM_P1;HPM_P2
2022/07/31 00:02:20;;;;;;;20.67;7.07;;;;;;;16.65;56.04;100120.06;5034415;28;20029;-53
2022/07/31 00:04:45;;;;;;;23.83;6.65;;;;;;;16.72;56.52;100131.06;5035024;28;20057;-56
2022/07/31 00:07:11;;;;;;;24.17;6.85;;;;;;;16.70;56.73;100127.69;5048471;28;20500;-55
2022/07/31 00:09:37;;;;;;;20.65;6.80;;;;;;;16.68;57.08;100129.69;5054724;28;20037;-55
2022/07/31 00:12:03;;;;;;;19.00;7.65;;;;;;;16.65;57.56;100137.13;5054484;28;20036;-54
2022/07/31 00:14:28;;;;;;;25.00;8.05;;;;;;;16.63;58.05;100122.03;5054297;28;20466;-58
2022/07/31 00:16:54;;;;;;;21.38;7.45;;;;;;;16.59;58.27;100132.34;5040196;28;20508;-55
2022/07/31 00:19:19;;;;;;;25.50;7.40;;;;;;;16.57;57.73;100130.78;5034507;28;20065;-55
2022/07/31 00:21:45;;;;;;;22.20;7.53;;;;;;;16.56;58.05;100126.38;5034450;28;20110;-54
2022/07/31 00:24:10;;;;;;;19.55;8.25;;;;;;;16.54;58.54;100129.25;5034552;28;20025;-53
2022/07/31 00:26:36;;;;;;;21.35;8.10;;;;;;;16.52;58.60;100125.00;5044528;28;20029;-57
2022/07/31 00:29:02;;;;;;;21.20;7.68;;;;;;;16.49;58.90;100127.00;5051917;28;20040;-57
2022/07/31 00:31:27;;;;;;;23.55;7.95;;;;;;;16.46;59.44;100119.22;5034034;28;20033;-56
2022/07/31 00:33:53;;;;;;;23.52;8.23;;;;;;;16.44;59.51;100132.03;5034077;28;20458;-55
2022/07/31 00:36:18;;;;;;;24.38;8.52;;;;;;;16.45;60.19;100130.16;5049020;28;20083;-62
2022/07/31 00:38:44;;;;;;;19.77;8.95;;;;;;;16.42;60.55;100125.94;5054230;28;20504;-57
2022/07/31 00:41:10;;;;;;;30.05;9.00;;;;;;;16.41;60.59;100126.94;5053939;28;20021;-54
2022/07/31 00:43:35;;;;;;;16.33;8.45;;;;;;;16.40;60.43;100122.56;5053881;28;20049;-53
2022/07/31 00:46:01;;;;;;;30.92;9.30;;;;;;;16.38;60.07;100123.69;5053812;28;20060;-53
2022/07/31 00:48:26;;;;;;;20.92;9.32;;;;;;;16.37;60.92;100122.81;5054052;28;20021;-56
2022/07/31 00:50:52;;;;;;;23.65;9.90;;;;;;;16.32;61.16;100114.34;5053338;28;20033;-56
2022/07/31 00:53:17;;;;;;;31.85;10.40;;;;;;;16.27;61.58;100109.41;5043425;28;20032;-58
2022/07/31 00:55:43;;;;;;;26.00;10.18;;;;;;;16.28;61.42;100118.38;5048214;28;20029;-55
2022/07/31 00:58:08;;;;;;;25.27;9.80;;;;;;;16.25;61.73;100126.78;5053493;28;20562;-52
2022/07/31 01:00:34;;;;;;;25.13;9.77;;;;;;;16.19;61.81;100121.00;5053434;28;20474;-56
2022/07/31 01:02:59;;;;;;;24.58;9.70;;;;;;;16.15;61.80;100114.16;5053626;28;20538;-57
2022/07/31 01:05:25;;;;;;;17.00;9.13;;;;;;;16.13;61.84;100126.16;5052882;28;20447;-50
2022/07/31 01:07:50;;;;;;;22.17;8.95;;;;;;;16.11;61.56;100120.88;5052854;28;20059;-55
2022/07/31 01:10:36;;;;;;;23.38;9.13;;;;;;;16.16;61.69;100128.53;5053265;28;20102;-57
2022/07/31 01:13:09;;;;;;;26.05;9.43;;;;;;;16.15;61.66;100130.38;5053186;28;20041;-56
2022/07/31 01:15:37;;;;;;;25.17;10.02;;;;;;;16.10;61.31;100127.28;5035065;28;20056;-58
2022/07/31 01:18:04;;;;;;;19.70;8.88;;;;;;;16.08;61.73;100132.00;5033106;28;20036;-56
2022/07/31 01:20:31;;;;;;;19.85;8.77;;;;;;;16.05;61.67;100132.31;5033087;28;20116;-56
2022/07/31 01:23:20;;;;;;;23.50;9.23;;;;;;;16.09;61.89;100128.31;5033412;28;20041;-53
2022/07/31 01:26:00;;;;;;;22.08;9.00;;;;;;;16.16;61.83;100126.72;5037757;28;20094;-53
2022/07/31 01:28:35;;;;;;;22.15;8.90;;;;;;;16.09;61.74;100136.41;5053095;28;20025;-54
2022/07/31 01:31:15;;;;;;;22.70;8.90;;;;;;;16.11;61.84;100131.69;5049647;28;20543;-56
2022/07/31 01:33:49;;;;;;;14.30;7.97;;;;;;;16.09;61.51;100136.41;5039455;28;20041;-56
2022/07/31 01:36:20;;;;;;;23.20;8.95;;;;;;;16.04;61.38;100122.50;5052987;28;20040;-56
2022/07/31 01:38:50;;;;;;;25.38;9.45;;;;;;;15.97;61.83;100121.44;5034492;28;20041;-54
2022/07/31 01:41:17;;;;;;;14.48;8.85;;;;;;;15.82;62.12;100096.78;5032578;28;20029;-55
2022/07/31 01:43:47;;;;;;;24.55;8.40;;;;;;;15.98;62.03;100115.03;5032848;28;20121;-52
2022/07/31 01:46:15;;;;;;;20.15;9.02;;;;;;;15.98;62.10;100128.53;5032763;28;20135;-55
2022/07/31 01:48:42;;;;;;;24.13;9.18;;;;;;;15.94;62.13;100138.78;5032567;28;20029;-55
2022/07/31 01:51:10;;;;;;;23.33;8.88;;;;;;;15.91;62.09;100118.34;5032625;28;20041;-53
2022/07/31 01:53:37;;;;;;;22.80;9.80;;;;;;;15.97;62.29;100121.44;5049431;28;20082;-55
2022/07/31 01:56:05;;;;;;;27.02;9.35;;;;;;;16.01;62.10;100125.53;5052190;28;20037;-55
2022/07/31 01:58:35;;;;;;;24.48;8.55;;;;;;;16.03;61.97;100124.34;5040917;28;20044;-55
2022/07/31 02:01:03;;;;;;;21.52;9.10;;;;;;;16.06;61.80;100131.31;5039118;28;20063;-55
2022/07/31 02:03:29;;;;;;;22.08;9.45;;;;;;;16.09;61.63;100132.88;5052628;28;20040;-50
2022/07/31 02:05:59;;;;;;;21.02;8.93;;;;;;;16.03;61.75;100127.06;5052124;28;20447;-55
2022/07/31 02:08:25;;;;;;;24.15;9.80;;;;;;;15.94;61.94;100100.97;5051298;28;20048;-56
2022/07/31 02:10:51;;;;;;;19.33;9.00;;;;;;;16.09;61.91;100128.31;5034966;28;20362;-55
2022/07/31 02:13:18;;;;;;;23.00;9.25;;;;;;;16.08;61.86;100126.59;5052323;28;20037;-55
2022/07/31 02:15:45;;;;;;;21.80;8.52;;;;;;;16.13;61.98;100128.84;5051866;28;20098;-55
2022/07/31 02:18:11;;;;;;;18.95;9.38;;;;;;;16.15;61.86;100129.56;5039637;28;20112;-55
2022/07/31 02:20:40;;;;;;;17.67;8.55;;;;;;;16.22;62.08;100136.03;5032167;28;20119;-55
2022/07/31 02:23:06;;;;;;;20.20;8.63;;;;;;;16.18;62.15;100129.25;5032464;28;20035;-53
2022/07/31 02:25:35;;;;;;;16.80;8.40;;;;;;;16.23;61.90;100132.31;5050611;28;20025;-56
2022/07/31 02:28:07;;;;;;;18.58;9.85;;;;;;;16.29;61.88;100130.88;5051788;28;20108;-53
2022/07/31 02:30:34;;;;;;;19.70;9.57;;;;;;;16.32;61.71;100126.03;5052160;28;20120;-56
2022/07/31 02:33:02;;;;;;;20.48;9.02;;;;;;;16.21;61.63;100105.47;5052003;28;20067;-56
2022/07/31 02:35:29;;;;;;;20.98;9.30;;;;;;;16.42;61.55;100114.28;5051701;28;20044;-54
2022/07/31 02:37:55;;;;;;;19.83;9.32;;;;;;;16.45;61.50;100125.63;5037372;28;20025;-54
2022/07/31 02:40:24;;;;;;;22.00;9.43;;;;;;;16.57;61.23;100128.06;5032011;28;20033;-51
2022/07/31 02:42:51;;;;;;;22.20;10.05;;;;;;;16.60;61.05;100125.06;5031878;28;20032;-58
2022/07/31 02:45:17;;;;;;;28.75;9.55;;;;;;;16.66;61.09;100116.34;5031909;28;20025;-54
2022/07/31 02:47:43;;;;;;;16.75;8.90;;;;;;;16.72;60.87;100121.13;5041049;28;20473;-55
2022/07/31 02:50:10;;;;;;;17.98;8.48;;;;;;;16.76;60.88;100122.50;5051646;28;20040;-52
2022/07/31 02:52:37;;;;;;;18.13;9.13;;;;;;;16.82;60.44;100117.47;5051849;28;20029;-54
2022/07/31 02:55:04;;;;;;;21.67;8.98;;;;;;;16.89;60.67;100124.78;5051382;28;20036;-52
2022/07/31 02:57:30;;;;;;;21.10;8.30;;;;;;;16.92;60.34;100123.63;5035616;28;20025;-56
2022/07/31 02:59:56;;;;;;;18.33;8.82;;;;;;;16.98;60.21;100125.72;5031829;28;20036;-55
2022/07/31 03:02:21;;;;;;;18.70;9.27;;;;;;;17.05;60.11;100121.38;5031468;28;20064;-53
2022/07/31 03:04:47;;;;;;;15.98;9.20;;;;;;;17.10;59.87;100123.63;5031089;28;20404;-55
2022/07/31 03:07:12;;;;;;;16.02;8.82;;;;;;;17.16;59.76;100122.13;5031399;28;20105;-55
2022/07/31 03:09:38;;;;;;;19.55;9.45;;;;;;;17.25;59.72;100125.75;5031260;28;20030;-54
2022/07/31 03:12:04;;;;;;;16.63;8.52;;;;;;;17.35;59.49;100124.59;5049557;28;20437;-55
2022/07/31 03:14:31;;;;;;;19.88;9.07;;;;;;;17.43;59.07;100129.22;5051055;28;20036;-53
2022/07/31 03:16:58;;;;;;;16.77;9.35;;;;;;;17.51;58.70;100125.69;5035503;28;20030;-55
2022/07/31 03:19:24;;;;;;;19.10;9.35;;;;;;;17.62;58.77;100128.13;5031378;28;20029;-55
2022/07/31 03:21:51;;;;;;;17.25;8.32;;;;;;;17.69;58.39;100131.00;5031102;28;20528;-57
2022/07/31 03:24:17;;;;;;;17.20;8.57;;;;;;;17.80;58.06;100132.59;5031517;28;20084;-52
2022/07/31 03:26:43;;;;;;;18.27;8.07;;;;;;;17.75;57.99;100099.72;5031259;28;20048;-55
2022/07/31 03:29:08;;;;;;;16.10;8.55;;;;;;;18.04;57.97;100133.69;5030522;28;20025;-54
2022/07/31 03:31:34;;;;;;;19.35;8.93;;;;;;;18.17;57.22;100131.38;5031376;28;20120;-54
2022/07/31 03:34:00;;;;;;;17.60;8.93;;;;;;;18.31;56.75;100121.75;5038398;28;20433;-56
2022/07/31 03:36:26;;;;;;;17.38;8.63;;;;;;;18.53;55.80;100129.38;5051256;28;20071;-55
2022/07/31 03:38:52;;;;;;;19.50;8.68;;;;;;;18.82;54.99;100122.63;5051000;28;20025;-53
2022/07/31 03:41:17;;;;;;;15.70;8.60;;;;;;;19.52;52.80;100123.84;5051041;28;20029;-55
2022/07/31 03:43:43;;;;;;;15.23;8.23;;;;;;;20.51;50.15;100122.47;5051114;28;20094;-55
2022/07/31 03:46:10;;;;;;;16.98;8.85;;;;;;;21.57;46.79;100129.81;5050859;28;20040;-54
2022/07/31 03:48:36;;;;;;;19.58;8.73;;;;;;;22.49;43.60;100113.94;5050272;28;20025;-57
2022/07/31 03:51:02;;;;;;;14.35;8.80;;;;;;;23.29;41.59;100101.13;5046230;28;20048;-52
2022/07/31 03:53:27;;;;;;;14.95;7.78;;;;;;;24.33;39.90;100125.72;5038921;28;20025;-55
2022/07/31 03:55:54;;;;;;;15.55;8.77;;;;;;;25.32;37.68;100125.13;5039289;28;20037;-56
2022/07/31 03:58:21;;;;;;;16.15;8.07;;;;;;;26.30;35.75;100136.19;5031179;28;20745;-54
2022/07/31 04:00:47;;;;;;;16.92;8.45;;;;;;;27.17;34.28;100118.19;5030994;28;20136;-56
2022/07/31 04:03:13;;;;;;;18.02;8.48;;;;;;;28.04;32.36;100119.09;5030740;28;20116;-53
2022/07/31 04:05:40;;;;;;;11.73;7.13;;;;;;;28.86;30.62;100116.84;5030934;28;20037;-53
2022/07/31 04:08:07;;;;;;;11.95;7.40;;;;;;;29.59;29.10;100113.84;5029729;28;20034;-54
2022/07/31 04:10:34;;;;;;;11.68;7.28;;;;;;;30.35;27.85;100121.97;5030867;28;20140;-53
2022/07/31 04:13:03;;;;;;;15.20;7.22;;;;;;;31.05;26.82;100124.50;5038429;28;20362;-61
2022/07/31 04:15:29;;;;;;;11.32;7.22;;;;;;;31.79;25.09;100117.00;5050612;28;20045;-51
2022/07/31 04:17:54;;;;;;;13.45;7.30;;;;;;;32.57;24.42;100112.25;5050678;28;20350;-55
2022/07/31 04:20:20;;;;;;;9.68;7.63;;;;;;;33.32;23.42;100114.19;5030912;28;20139;-52
2022/07/31 04:22:47;;;;;;;9.82;7.40;;;;;;;33.95;22.51;100125.56;5030641;28;20033;-52
2022/07/31 04:25:12;;;;;;;11.70;6.40;;;;;;;34.38;21.76;100122.63;5030538;28;20097;-53
2022/07/31 04:27:37;;;;;;;12.38;7.28;;;;;;;34.83;20.86;100122.94;5030662;28;20034;-54
2022/07/31 04:30:04;;;;;;;13.45;7.20;;;;;;;35.38;20.15;100127.84;5030587;28;20068;-56
2022/07/31 04:32:29;;;;;;;11.95;7.28;;;;;;;35.97;19.63;100117.88;5038087;28;20057;-57
2022/07/31 04:34:55;;;;;;;8.73;6.60;;;;;;;36.61;18.66;100120.84;5050308;28;20120;-57
2022/07/31 04:37:21;;;;;;;9.85;6.72;;;;;;;36.90;18.27;100102.44;5050446;28;20076;-55
2022/07/31 04:39:46;;;;;;;13.65;6.57;;;;;;;37.43;18.04;100123.09;5050446;28;20029;-54
2022/07/31 04:42:12;;;;;;;8.25;6.22;;;;;;;37.48;17.80;100123.84;5044145;28;20025;-56
2022/07/31 04:44:37;;;;;;;10.20;5.80;;;;;;;37.77;17.19;100113.75;5033853;28;20439;-55
2022/07/31 04:47:04;;;;;;;8.27;4.95;;;;;;;38.46;16.70;100118.94;5034148;28;20121;-57
2022/07/31 04:49:32;;;;;;;5.90;2.70;;;;;;;38.87;14.90;100122.16;5034279;28;20389;-56
2022/07/31 04:51:58;;;;;;;3.72;2.78;;;;;;;39.17;14.67;100112.38;5047408;28;20064;-55
2022/07/31 04:54:24;;;;;;;4.55;2.88;;;;;;;39.55;14.66;100100.16;5053883;28;20080;-56
2022/07/31 04:56:49;;;;;;;5.50;3.15;;;;;;;39.94;13.90;100116.72;5053867;28;20064;-56
2022/07/31 04:59:16;;;;;;;7.68;3.60;;;;;;;40.30;13.83;100129.94;5051963;28;20037;-55
2022/07/31 05:01:43;;;;;;;5.57;2.75;;;;;;;40.65;13.32;100110.53;5053536;28;20029;-55
2022/07/31 05:04:09;;;;;;;3.53;2.30;;;;;;;41.03;12.59;100112.91;5053440;28;20028;-55
2022/07/31 05:06:37;;;;;;;13.75;2.60;;;;;;;41.39;12.53;100115.88;5047937;28;20136;-60
2022/07/31 05:09:05;;;;;;;3.88;2.47;;;;;;;41.99;11.85;100119.16;5033219;28;20091;-53
2022/07/31 05:11:32;;;;;;;3.15;2.70;;;;;;;42.65;11.52;100115.34;5033571;28;20040;-52
2022/07/31 05:13:59;;;;;;;3.92;2.42;;;;;;;43.00;11.37;100126.53;5033524;28;20025;-51
2022/07/31 05:16:26;;;;;;;4.95;2.70;;;;;;;43.35;11.04;100105.88;5033078;28;20402;-55
2022/07/31 05:18:52;;;;;;;3.67;2.33;;;;;;;43.93;10.90;100112.97;5033223;28;20482;-55
2022/07/31 05:21:19;;;;;;;2.65;2.35;;;;;;;43.71;10.56;100110.13;5033195;28;20167;-57
2022/07/31 05:23:46;;;;;;;2.95;2.20;;;;;;;43.88;10.05;100106.34;5034125;28;20033;-53
2022/07/31 05:26:12;;;;;;;4.13;2.05;;;;;;;44.66;9.67;100100.38;5033140;28;20038;-52
2022/07/31 05:28:38;;;;;;;3.53;2.22;;;;;;;45.14;9.65;100097.97;5039888;28;20036;-52
2022/07/31 05:31:04;;;;;;;2.50;2.25;;;;;;;45.56;9.05;100091.25;5052556;28;20400;-53
2022/07/31 05:33:30;;;;;;;2.20;2.00;;;;;;;45.93;8.88;100086.72;5053056;28;20036;-53
2022/07/31 05:35:56;;;;;;;2.75;1.90;;;;;;;46.35;8.69;100091.16;5053101;28;20025;-52
2022/07/31 05:38:21;;;;;;;2.92;2.10;;;;;;;46.78;8.55;100080.19;5053001;28;20489;-50
2022/07/31 05:40:46;;;;;;;3.35;1.77;;;;;;;46.89;8.11;100080.50;5052892;28;20025;-54
2022/07/31 05:43:12;;;;;;;2.15;1.95;;;;;;;47.34;7.38;100069.88;5042586;28;20041;-56
2022/07/31 05:45:38;;;;;;;2.65;1.80;;;;;;;48.11;7.27;100076.84;5032992;28;20216;-53
2022/07/31 05:48:04;;;;;;;1.90;1.80;;;;;;;48.47;7.18;100075.91;5033037;28;20458;-55
2022/07/31 05:50:29;;;;;;;4.30;1.73;;;;;;;48.92;6.47;100074.28;5034234;28;20470;-55
2022/07/31 05:52:55;;;;;;;1.73;1.40;;;;;;;49.30;6.68;100068.00;5052371;28;20420;-56
2022/07/31 05:55:20;;;;;;;2.38;1.40;;;;;;;49.62;5.92;100067.66;5052806;28;20510;-55
2022/07/31 05:57:46;;;;;;;1.83;1.67;;;;;;;50.10;6.22;100070.72;5052511;28;20040;-57
2022/07/31 06:00:12;;;;;;;4.10;1.33;;;;;;;49.97;5.67;100075.03;5052428;28;20029;-49
2022/07/31 06:02:38;;;;;;;1.77;1.25;;;;;;;50.06;5.56;100072.69;5042697;28;20033;-54
2022/07/31 06:05:04;;;;;;;1.60;1.42;;;;;;;50.50;5.31;100081.72;5032569;28;20042;-54
2022/07/31 06:07:30;;;;;;;1.70;1.30;;;;;;;50.23;5.32;100065.59;5032299;28;20393;-53
2022/07/31 06:09:55;;;;;;;1.67;1.50;;;;;;;50.01;5.61;100061.66;5032540;28;20025;-57
2022/07/31 06:12:21;;;;;;;2.35;1.50;;;;;;;47.85;6.91;100072.66;5052271;28;20051;-58
2022/07/31 06:14:46;;;;;;;1.63;1.33;;;;;;;44.67;8.21;100073.78;5036656;28;20075;-52
2022/07/31 06:17:12;;;;;;;1.20;1.10;;;;;;;41.28;9.80;100062.81;5031066;28;20091;-54
2022/07/31 06:19:38;;;;;;;2.95;1.20;;;;;;;38.56;11.95;100067.59;5032367;28;20025;-64
2022/07/31 06:22:03;;;;;;;4.70;1.23;;;;;;;36.46;14.08;100066.00;5040400;28;20025;-60
2022/07/31 06:24:29;;;;;;;1.60;1.50;;;;;;;34.74;15.13;100073.47;5042133;28;20466;-60
2022/07/31 06:27:01;;;;;;;2.65;1.55;;;;;;;33.52;16.88;100079.34;5039566;28;20021;-58
2022/07/31 06:29:29;;;;;;;2.47;1.55;;;;;;;32.32;18.36;100079.59;5038551;28;20035;-54
2022/07/31 06:31:55;;;;;;;1.83;1.40;;;;;;;31.47;19.46;100069.78;5041821;28;20039;-59
2022/07/31 06:34:22;;;;;;;4.38;1.63;;;;;;;30.87;19.72;100077.81;5038995;28;20053;-61
2022/07/31 06:36:48;;;;;;;3.00;1.90;;;;;;;30.46;20.56;100088.97;5040274;28;20021;-55
2022/07/31 06:39:14;;;;;;;2.13;1.65;;;;;;;30.38;20.72;100090.22;5040906;28;20532;-57
2022/07/31 06:41:43;;;;;;;3.15;1.33;;;;;;;30.46;20.94;100081.53;5041207;28;20427;-59
2022/07/31 06:44:09;;;;;;;2.20;1.27;;;;;;;30.13;20.97;100088.69;5041215;28;20081;-63
2022/07/31 06:46:35;;;;;;;1.80;1.33;;;;;;;29.64;21.53;100080.81;5037840;28;20031;-65
2022/07/31 06:49:00;;;;;;;2.03;1.35;;;;;;;29.24;22.00;100079.69;5039687;28;20029;-54
2022/07/31 06:51:26;;;;;;;5.55;1.80;;;;;;;28.84;23.20;100070.25;5040304;28;20022;-58
2022/07/31 06:53:52;;;;;;;2.15;1.67;;;;;;;28.47;23.54;100075.94;5039365;28;20029;-60
2022/07/31 06:56:17;;;;;;;2.70;1.92;;;;;;;28.73;23.25;100080.16;5037308;28;20036;-59
2022/07/31 06:58:43;;;;;;;4.88;1.90;;;;;;;30.90;20.68;100060.72;5038111;28;20109;-59
2022/07/31 07:01:08;;;;;;;2.55;1.30;;;;;;;34.13;17.24;100063.97;5044807;28;20044;-63
2022/07/31 07:03:34;;;;;;;3.17;1.90;;;;;;;34.39;16.80;100069.53;5050949;28;20535;-59
2022/07/31 07:05:59;;;;;;;2.65;1.50;;;;;;;33.68;16.74;100054.41;5050936;28;20045;-58
2022/07/31 07:08:25;;;;;;;3.63;1.35;;;;;;;33.16;17.73;100066.13;5049977;28;20049;-59
2022/07/31 07:10:50;;;;;;;2.08;1.20;;;;;;;32.64;17.42;100073.22;5041121;28;20025;-55
2022/07/31 07:13:16;;;;;;;2.78;1.00;;;;;;;32.52;18.01;100067.03;5031155;28;20030;-58
2022/07/31 07:15:41;;;;;;;3.05;1.20;;;;;;;34.93;15.46;100075.63;5031618;28;20045;-58
2022/07/31 07:18:07;;;;;;;2.15;1.30;;;;;;;36.41;14.38;100066.03;5031330;28;20120;-60
2022/07/31 07:20:32;;;;;;;1.90;1.50;;;;;;;38.73;12.40;100064.19;5033537;28;20095;-59
2022/07/31 07:22:58;;;;;;;1.67;1.35;;;;;;;41.99;9.90;100062.94;5030727;28;20125;-58
2022/07/31 07:25:23;;;;;;;1.20;1.10;;;;;;;44.56;7.88;100064.97;5033603;28;20032;-59
2022/07/31 07:27:49;;;;;;;0.80;0.80;;;;;;;46.89;5.24;100063.50;5033477;28;20478;-60
2022/07/31 07:30:14;;;;;;;0.80;0.80;;;;;;;48.53;4.41;100061.03;5039016;28;20025;-61
2022/07/31 07:32:39;;;;;;;1.25;1.17;;;;;;;49.91;3.87;100057.50;5041414;28;20538;-64
2022/07/31 07:35:08;;;;;;;0.90;0.90;;;;;;;51.05;3.47;100058.22;5041143;28;20116;-60
2022/07/31 07:37:33;;;;;;;2.83;1.10;;;;;;;51.72;3.45;100054.53;5039559;28;20112;-60
2022/07/31 07:39:59;;;;;;;1.33;1.23;;;;;;;52.19;3.24;100051.88;5040537;28;20125;-61
2022/07/31 07:42:24;;;;;;;1.88;1.42;;;;;;;52.75;3.01;100054.41;5040694;28;20038;-61
2022/07/31 07:44:50;;;;;;;2.28;1.25;;;;;;;53.21;2.66;100047.81;5040196;28;21436;-61
2022/07/31 07:47:15;;;;;;;2.65;1.88;;;;;;;53.34;2.90;100042.47;5039352;28;20033;-61
2022/07/31 07:49:40;;;;;;;1.70;1.60;;;;;;;53.07;2.90;100039.31;5041575;28;20028;-62
2022/07/31 07:52:06;;;;;;;1.92;1.83;;;;;;;52.67;3.05;100045.81;5041353;28;20243;-61
2022/07/31 07:54:31;;;;;;;1.27;1.27;;;;;;;52.85;2.95;100045.03;5037634;28;20390;-61
2022/07/31 07:56:57;;;;;;;1.73;1.63;;;;;;;51.99;3.33;100043.66;5041623;28;20025;-61
2022/07/31 07:59:23;;;;;;;1.75;1.65;;;;;;;50.34;3.92;100036.41;5040475;28;20041;-61
2022/07/31 08:01:48;;;;;;;1.48;1.38;;;;;;;50.84;3.65;100036.03;5039986;28;20048;-60
2022/07/31 08:04:14;;;;;;;2.90;1.40;;;;;;;48.56;4.82;100031.06;5041184;28;20404;-61
2022/07/31 08:06:39;;;;;;;1.40;1.30;;;;;;;46.15;6.06;100037.25;5039837;28;20048;-60
2022/07/31 08:09:05;;;;;;;1.40;1.30;;;;;;;46.81;5.56;100022.84;5039237;28;20036;-61
2022/07/31 08:11:30;;;;;;;1.73;1.20;;;;;;;47.98;4.80;100029.91;5029525;28;20060;-60
2022/07/31 08:13:55;;;;;;;1.40;1.30;;;;;;;48.07;4.51;100027.72;5030224;28;20627;-59
2022/07/31 08:16:21;;;;;;;1.20;1.10;;;;;;;48.51;4.63;100025.69;5032985;28;20285;-59
2022/07/31 08:18:50;;;;;;;1.15;1.05;;;;;;;48.83;4.55;100034.78;5034724;28;20262;-60
2022/07/31 08:21:15;;;;;;;1.50;1.40;;;;;;;47.96;4.55;100016.13;5046896;28;20029;-59
2022/07/31 08:23:41;;;;;;;2.13;1.33;;;;;;;46.65;5.44;100025.66;5053404;28;20048;-61
2022/07/31 08:26:09;;;;;;;2.20;1.27;;;;;;;43.74;7.18;100026.88;5034130;28;20026;-60
2022/07/31 08:28:35;;;;;;;1.50;1.40;;;;;;;41.13;8.82;100021.09;5034331;28;20351;-59
2022/07/31 08:31:02;;;;;;;1.83;1.10;;;;;;;38.90;9.71;100020.78;5034257;28;20034;-57
2022/07/31 08:33:27;;;;;;;1.52;1.10;;;;;;;36.93;11.28;100020.94;5033944;28;20438;-56
2022/07/31 08:35:53;;;;;;;1.20;1.10;;;;;;;35.69;12.47;100019.16;5034101;28;20061;-60
2022/07/31 08:38:18;;;;;;;3.65;1.20;;;;;;;34.80;13.12;100023.38;5039130;28;20130;-61
2022/07/31 08:40:45;;;;;;;1.42;1.15;;;;;;;34.27;13.67;100030.09;5054058;28;20033;-62
2022/07/31 08:43:13;;;;;;;3.08;1.17;;;;;;;34.01;13.98;100030.91;5051938;28;20033;-57
2022/07/31 08:45:42;;;;;;;2.22;1.35;;;;;;;33.52;14.13;100020.22;5032932;28;20111;-54
2022/07/31 08:48:08;;;;;;;1.35;1.25;;;;;;;33.05;14.85;100022.78;5032569;28;20478;-55
2022/07/31 08:50:38;;;;;;;1.77;1.30;;;;;;;32.93;15.25;100020.22;5032386;28;20040;-58
2022/07/31 08:53:04;;;;;;;3.78;1.05;;;;;;;32.71;15.46;100020.34;5042362;28;20100;-57
2022/07/31 08:55:31;;;;;;;1.58;0.93;;;;;;;32.42;15.24;100021.53;5052209;28;20043;-56
2022/07/31 08:57:57;;;;;;;2.88;1.00;;;;;;;32.31;15.46;100016.94;5046173;28;20105;-55
2022/07/31 09:00:23;;;;;;;2.60;1.00;;;;;;;32.24;15.46;100011.66;5032916;28;20128;-56
2022/07/31 09:02:49;;;;;;;4.47;1.30;;;;;;;31.83;15.75;100009.34;5033594;28;20079;-54
2022/07/31 09:05:15;;;;;;;1.92;1.20;;;;;;;31.49;16.27;99995.66;5033599;28;20370;-62
2022/07/31 09:07:42;;;;;;;2.15;1.02;;;;;;;31.45;16.26;100005.59;5033261;28;20489;-57
2022/07/31 09:10:19;;;;;;;2.97;1.20;;;;;;;31.68;16.24;100014.69;5052154;28;20120;-51
2022/07/31 09:12:44;;;;;;;2.97;1.27;;;;;;;31.49;16.65;100010.34;5050130;28;20714;-61
2022/07/31 09:15:39;;;;;;;4.22;1.17;;;;;;;31.52;16.60;100006.22;5053631;28;20032;-54
2022/07/31 09:18:21;;;;;;;1.63;1.20;;;;;;;31.48;16.44;99999.53;5040891;28;20828;-51
2022/07/31 09:20:57;;;;;;;1.95;1.17;;;;;;;31.06;17.34;100001.75;5033247;28;20116;-56
2022/07/31 09:23:25;;;;;;;1.80;1.20;;;;;;;30.40;17.84;100007.97;5033120;28;20091;-55
2022/07/31 09:25:55;;;;;;;1.55;1.15;;;;;;;29.99;18.27;100012.75;5033164;28;20135;-55
2022/07/31 09:28:37;;;;;;;1.05;0.95;;;;;;;29.73;18.36;100009.53;5032604;28;20087;-60
2022/07/31 09:31:05;;;;;;;3.63;1.30;;;;;;;29.35;18.75;100009.06;5033924;28;20409;-55
2022/07/31 09:33:31;;;;;;;4.38;1.30;;;;;;;29.13;19.45;99995.06;5032734;28;20040;-55
2022/07/31 09:35:57;;;;;;;1.58;1.10;;;;;;;28.99;19.22;100005.53;5033254;28;20036;-56
2022/07/31 09:38:32;;;;;;;2.08;1.00;;;;;;;28.77;19.47;99973.91;5050954;28;20039;-57
2022/07/31 09:41:27;;;;;;;2.00;1.27;;;;;;;28.99;18.77;100000.88;5052892;28;20076;-54
2022/07/31 09:44:03;;;;;;;2.10;1.30;;;;;;;28.75;19.32;100005.53;5052308;28;20606;-56
2022/07/31 09:46:42;;;;;;;2.85;1.20;;;;;;;28.66;19.26;100007.78;5052929;28;20040;-54
2022/07/31 09:49:08;;;;;;;3.10;1.23;;;;;;;28.58;19.35;100002.66;5034406;28;20502;-54
2022/07/31 09:51:45;;;;;;;2.47;1.27;;;;;;;28.54;19.22;100005.03;5032675;28;20057;-55
2022/07/31 09:54:21;;;;;;;3.97;1.30;;;;;;;28.29;20.93;100008.03;5046982;28;20064;-56
2022/07/31 09:56:48;;;;;;;3.58;1.80;;;;;;;28.18;21.53;100006.94;5042848;28;20389;-57
2022/07/31 09:59:14;;;;;;;4.72;1.30;;;;;;;28.26;20.88;100003.00;5033904;28;20393;-51
2022/07/31 10:01:40;;;;;;;3.20;1.30;;;;;;;28.17;21.54;100008.81;5032419;28;20100;-57
2022/07/31 10:04:06;;;;;;;3.85;1.50;;;;;;;28.14;21.21;100000.19;5032708;28;20087;-56
2022/07/31 10:06:34;;;;;;;3.05;1.60;;;;;;;28.14;21.42;100017.53;5032539;28;20441;-53
2022/07/31 10:09:01;;;;;;;3.97;1.80;;;;;;;28.10;21.41;100016.34;5047789;28;20037;-51
2022/07/31 10:11:29;;;;;;;5.38;1.70;;;;;;;28.14;21.08;100014.78;5052387;28;20032;-56
2022/07/31 10:13:59;;;;;;;6.10;1.63;;;;;;;28.05;21.59;100017.03;5052241;28;20078;-55
2022/07/31 10:16:27;;;;;;;3.58;1.50;;;;;;;27.82;21.69;100009.56;5051029;28;20032;-58
2022/07/31 10:18:58;;;;;;;4.55;1.42;;;;;;;27.76;21.37;100018.75;5033561;28;20038;-55
2022/07/31 10:21:31;;;;;;;5.55;1.25;;;;;;;27.84;21.83;100020.31;5032109;28;20176;-55
2022/07/31 10:23:58;;;;;;;3.90;1.40;;;;;;;27.88;21.07;100005.88;5032219;28;20040;-57
2022/07/31 10:26:24;;;;;;;1.30;1.20;;;;;;;27.92;20.68;100009.00;5031993;28;20036;-55
2022/07/31 10:28:50;;;;;;;2.55;1.15;;;;;;;27.84;20.88;100012.06;5032080;28;20393;-63
2022/07/31 10:31:15;;;;;;;1.85;1.10;;;;;;;27.69;20.73;100009.72;5050679;28;20120;-54
2022/07/31 10:33:43;;;;;;;1.13;0.80;;;;;;;27.75;20.91;100004.16;5051827;28;20047;-54
2022/07/31 10:36:18;;;;;;;1.95;1.08;;;;;;;27.72;20.36;100015.63;5042878;28;20037;-54
2022/07/31 10:39:00;;;;;;;4.18;1.25;;;;;;;27.71;21.07;100008.44;5031663;28;20026;-58
2022/07/31 10:41:40;;;;;;;1.75;1.15;;;;;;;27.60;20.71;100011.97;5043945;28;20493;-54
2022/07/31 10:44:33;;;;;;;1.73;1.17;;;;;;;27.69;21.21;100005.09;5051166;28;20028;-53
2022/07/31 10:46:59;;;;;;;3.53;1.08;;;;;;;27.44;21.16;99994.19;5050948;28;20179;-55
2022/07/31 10:49:46;;;;;;;2.42;1.30;;;;;;;27.63;20.69;100000.53;5051251;28;20029;-55
2022/07/31 10:52:12;;;;;;;3.53;1.20;;;;;;;27.71;20.73;99991.94;5051143;28;20115;-57
2022/07/31 10:54:42;;;;;;;1.25;1.10;;;;;;;28.05;21.13;99992.25;5031057;28;20112;-63
2022/07/31 10:57:08;;;;;;;2.40;1.20;;;;;;;28.00;20.72;99955.53;5031343;28;20382;-56
2022/07/31 10:59:33;;;;;;;2.75;1.17;;;;;;;28.11;21.19;99982.22;5031352;28;20026;-55
2022/07/31 11:01:59;;;;;;;2.58;1.08;;;;;;;27.78;20.68;99956.09;5031254;28;20412;-55
2022/07/31 11:04:26;;;;;;;2.97;1.23;;;;;;;27.75;21.27;99992.31;5031536;28;20025;-58
2022/07/31 11:06:53;;;;;;;2.65;1.40;;;;;;;27.52;21.36;99982.91;5031587;28;20046;-62
2022/07/31 11:09:23;;;;;;;2.97;1.40;;;;;;;27.46;21.75;99983.78;5031612;28;20468;-56
2022/07/31 11:11:48;;;;;;;1.45;1.10;;;;;;;27.34;21.58;99970.84;5031676;28;20113;-56
2022/07/31 11:14:14;;;;;;;1.77;1.40;;;;;;;27.45;22.43;99968.34;5032198;28;20116;-58
2022/07/31 11:16:49;;;;;;;2.03;1.33;;;;;;;27.86;21.61;99977.75;5051012;28;20037;-55
2022/07/31 11:19:15;;;;;;;2.67;1.20;;;;;;;27.87;20.97;99962.09;5039759;28;20391;-59
2022/07/31 11:21:41;;;;;;;3.03;1.30;;;;;;;27.94;20.60;99962.81;5029976;28;20519;-58
2022/07/31 11:24:15;;;;;;;2.42;1.20;;;;;;;28.22;21.22;99964.09;5031067;28;20076;-56
2022/07/31 11:27:00;;;;;;;3.67;1.30;;;;;;;28.33;20.62;99967.94;5050779;28;20429;-53